createdAt,value
2022-08-02T00:10:17.884Z,953.72
2022-08-02T00:25:20.137Z,953.4
2022-08-02T00:40:22.354Z,953.16
2022-08-02T00:55:31.215Z,953.07
2022-08-02T01:10:33.844Z,952.84
2022-08-02T01:25:36.017Z,952.68
2022-08-02T01:40:38.327Z,952.48
2022-08-02T01:55:57.916Z,952.29
2022-08-02T02:12:11.630Z,952.13
2022-08-02T02:27:16.001Z,952.05
2022-08-02T02:42:18.420Z,951.89
2022-08-02T02:57:20.780Z,951.77
2022-08-02T03:12:26.885Z,951.66
2022-08-02T03:27:32.913Z,951.61
2022-08-02T03:42:35.191Z,951.76
2022-08-02T03:57:37.451Z,951.97
2022-08-02T04:12:39.711Z,952.47
2022-08-02T04:27:50.364Z,952.7
2022-08-02T04:43:18.283Z,952.79
2022-08-02T04:58:39.302Z,953.04
2022-08-02T05:13:59.313Z,953.31
2022-08-02T05:29:01.927Z,953.51
2022-08-02T05:44:04.145Z,953.56
2022-08-02T05:59:06.553Z,953.81
2022-08-02T06:14:08.752Z,954.12
2022-08-02T06:29:10.937Z,954.33
2022-08-02T06:44:46.012Z,954.33
2022-08-02T06:59:53.249Z,954.44
2022-08-02T07:14:55.463Z,954.53
2022-08-02T07:29:57.798Z,954.8
2022-08-02T07:45:00.073Z,955.1
2022-08-02T08:00:02.462Z,955.16
2022-08-02T08:15:04.831Z,955.29
2022-08-02T08:30:07.037Z,955.52
2022-08-02T08:45:09.268Z,955.77
2022-08-02T09:00:11.527Z,955.88
2022-08-02T09:15:16.008Z,956
2022-08-02T09:30:18.572Z,955.9
2022-08-02T09:45:20.801Z,956.08
2022-08-02T10:00:43.378Z,956.18
2022-08-02T10:15:54.294Z,956.53
2022-08-02T10:30:56.501Z,956.68
2022-08-02T10:45:58.810Z,956.79
2022-08-02T11:01:01.213Z,956.94
2022-08-02T11:16:07.752Z,957.1
2022-08-02T11:31:13.544Z,957.22
2022-08-02T11:46:15.858Z,957.4
2022-08-02T12:01:18.117Z,957.52
2022-08-02T12:16:20.335Z,957.75
2022-08-02T12:31:22.716Z,957.75
2022-08-02T12:46:24.911Z,957.95
2022-08-02T13:01:27.170Z,958.23
2022-08-02T13:16:31.296Z,958.42
2022-08-02T13:31:36.620Z,958.61
2022-08-02T13:46:39.292Z,958.85
2022-08-02T14:01:48.045Z,959.14
2022-08-02T14:16:50.335Z,959.24
2022-08-02T14:31:52.583Z,959.37
2022-08-02T14:46:56.182Z,959.4
2022-08-02T15:01:58.524Z,959.51
2022-08-02T15:17:00.878Z,959.53
2022-08-02T15:32:03.149Z,959.54
2022-08-02T15:47:05.335Z,959.64
2022-08-02T16:02:07.684Z,959.72
2022-08-02T16:17:09.954Z,959.6
2022-08-02T16:32:12.515Z,959.63
2022-08-02T16:47:15.198Z,959.57
2022-08-02T17:02:18.343Z,959.46
2022-08-02T17:17:21.747Z,959.41
2022-08-02T17:32:24.143Z,959.34
2022-08-02T17:47:31.657Z,959.23
2022-08-02T18:02:55.139Z,959.14
2022-08-02T18:17:58.001Z,959.11
2022-08-02T18:33:55.896Z,958.88
2022-08-02T18:49:13.300Z,958.82
2022-08-02T19:04:27.592Z,958.65
2022-08-02T19:19:30.853Z,958.59
2022-08-02T19:34:35.694Z,958.51
2022-08-02T19:49:40.431Z,958.45
2022-08-02T20:04:43.219Z,958.31
2022-08-02T20:19:52.548Z,958.27
2022-08-02T20:34:54.750Z,958.27
2022-08-02T20:49:57.101Z,958.07
2022-08-02T21:05:00.117Z,958.04
2022-08-02T21:20:10.082Z,957.95
2022-08-02T21:35:13.271Z,957.8
2022-08-02T21:50:16.308Z,957.67
2022-08-02T22:05:18.962Z,957.57
2022-08-02T22:20:21.526Z,957.51
2022-08-02T22:35:23.871Z,957.52
2022-08-02T22:50:27.098Z,957.38
2022-08-02T23:05:29.380Z,957.24
2022-08-02T23:20:31.614Z,957.2
2022-08-02T23:35:33.885Z,957.06
2022-08-02T23:50:36.084Z,957
